Time;durP1;ratioP1;P1;durP2;ratioP2;P2;SDS_P1;SDS_P2;PMS_P1;PMS_P2;Temp;Humidity;BMP_temperature;BMP_pressure;BME280_temperature;BME280_humidity;BME280_pressure;Samples;Min_cycle;Max_cycle;Signal;HPM_P1;HPM_P2
2022/10/31 00:01:12;;;;;;;8.30;3.75;;;;;;;9.76;100.00;97763.94;5064807;28;20564;-61
2022/10/31 00:03:39;;;;;;;6.43;3.00;;;;;;;9.61;100.00;97766.28;5066098;28;20111;-61
2022/10/31 00:06:05;;;;;;;7.95;3.28;;;;;;;9.46;100.00;97762.19;5064095;28;20040;-62
2022/10/31 00:08:32;;;;;;;5.88;3.20;;;;;;;9.37;100.00;97763.59;5046041;28;20128;-61
2022/10/31 00:10:58;;;;;;;11.15;4.10;;;;;;;9.35;100.00;97763.81;5063424;28;20060;-61
2022/10/31 00:13:25;;;;;;;8.02;4.35;;;;;;;9.39;100.00;97772.28;5065701;28;20127;-61
2022/10/31 00:15:51;;;;;;;9.77;3.28;;;;;;;9.42;100.00;97768.28;5065871;28;20044;-61
2022/10/31 00:18:18;;;;;;;7.40;3.80;;;;;;;9.44;100.00;97771.59;5065492;28;20499;-61
2022/10/31 00:20:44;;;;;;;7.07;3.38;;;;;;;9.50;100.00;97773.34;5065261;28;20119;-61
2022/10/31 00:23:11;;;;;;;8.38;3.33;;;;;;;9.47;100.00;97768.41;5065508;28;20048;-61
2022/10/31 00:25:39;;;;;;;7.55;3.20;;;;;;;9.50;100.00;97770.63;5065752;28;20159;-61
2022/10/31 00:28:07;;;;;;;7.55;3.28;;;;;;;9.49;100.00;97767.13;5066373;28;20078;-61
2022/10/31 00:30:34;;;;;;;7.80;3.60;;;;;;;9.43;100.00;97769.94;5065200;28;20511;-61
2022/10/31 00:33:03;;;;;;;7.85;3.65;;;;;;;9.39;100.00;97769.56;5064769;28;20052;-61
2022/10/31 00:35:30;;;;;;;7.00;3.53;;;;;;;9.37;100.00;97763.59;5069462;28;20040;-61
2022/10/31 00:37:57;;;;;;;8.00;3.30;;;;;;;9.36;100.00;97765.47;5054355;28;20484;-61
2022/10/31 00:40:23;;;;;;;9.45;2.95;;;;;;;9.36;100.00;97761.91;5052175;28;20102;-61
2022/10/31 00:42:50;;;;;;;9.25;3.25;;;;;;;9.36;100.00;97761.91;5070296;28;20036;-61
2022/10/31 00:45:17;;;;;;;9.43;3.75;;;;;;;9.41;100.00;97778.28;5071275;28;20127;-61
2022/10/31 00:47:44;;;;;;;8.15;3.10;;;;;;;9.35;100.00;97768.41;5072059;28;20115;-61
2022/10/31 00:50:10;;;;;;;7.32;3.65;;;;;;;9.42;100.00;97766.41;5070759;28;20515;-61
2022/10/31 00:52:37;;;;;;;4.93;2.80;;;;;;;9.48;100.00;97765.47;5071400;28;20067;-61
2022/10/31 00:55:04;;;;;;;9.85;3.53;;;;;;;9.48;100.00;97765.47;5072560;28;20056;-61
2022/10/31 00:57:30;;;;;;;6.47;3.00;;;;;;;9.45;100.00;97757.84;5071212;28;20095;-61
2022/10/31 00:59:57;;;;;;;8.95;3.25;;;;;;;9.52;100.00;97770.41;5071941;28;20045;-61
2022/10/31 01:02:23;;;;;;;8.15;3.60;;;;;;;9.45;100.00;97765.94;5071782;28;20396;-61
2022/10/31 01:04:50;;;;;;;8.27;3.58;;;;;;;9.54;100.00;97769.09;5070748;28;20121;-61
2022/10/31 01:07:16;;;;;;;7.07;3.28;;;;;;;9.64;100.00;97765.81;5070561;28;20164;-61
2022/10/31 01:09:44;;;;;;;7.15;3.40;;;;;;;9.76;100.00;97766.63;5069156;28;20043;-61
2022/10/31 01:12:10;;;;;;;7.80;3.40;;;;;;;9.67;100.00;97762.66;5071823;28;20090;-61
2022/10/31 01:14:42;;;;;;;8.23;3.70;;;;;;;9.78;100.00;97766.41;5071076;28;20074;-61
2022/10/31 01:17:09;;;;;;;10.33;3.30;;;;;;;9.84;100.00;97764.63;5072113;28;20040;-61
2022/10/31 01:19:35;;;;;;;7.93;3.17;;;;;;;9.79;100.00;97759.09;5072169;28;20036;-61
2022/10/31 01:22:02;;;;;;;5.68;2.97;;;;;;;9.81;100.00;97762.38;5069905;28;20098;-61
2022/10/31 01:24:28;;;;;;;6.40;3.40;;;;;;;9.80;100.00;97756.16;5071174;28;20504;-61
2022/10/31 01:26:55;;;;;;;9.15;3.72;;;;;;;9.76;100.00;97757.69;5070883;28;20126;-61
2022/10/31 01:29:21;;;;;;;8.85;2.80;;;;;;;9.69;100.00;97751.59;5071675;28;20098;-61
2022/10/31 01:31:48;;;;;;;7.30;2.83;;;;;;;9.66;100.00;97755.56;5070276;28;20041;-61
2022/10/31 01:34:16;;;;;;;5.47;3.05;;;;;;;9.54;100.00;97752.06;5071095;28;20044;-61
2022/10/31 01:36:50;;;;;;;8.45;2.95;;;;;;;9.60;100.00;97757.38;5070318;28;20562;-61
2022/10/31 01:39:19;;;;;;;5.32;2.72;;;;;;;9.62;100.00;97749.81;5072102;28;20032;-61
2022/10/31 01:41:50;;;;;;;7.05;2.75;;;;;;;9.61;100.00;97753.59;5071285;28;20044;-61
2022/10/31 01:44:17;;;;;;;9.50;2.83;;;;;;;9.66;100.00;97749.34;5071185;28;20040;-61
2022/10/31 01:46:53;;;;;;;9.23;3.30;;;;;;;9.71;100.00;97750.31;5068504;28;20047;-61
2022/10/31 01:49:32;;;;;;;5.75;2.60;;;;;;;9.83;100.00;97754.84;5068503;28;20123;-61
2022/10/31 01:52:06;;;;;;;7.78;3.03;;;;;;;9.96;100.00;97748.38;5067763;28;20064;-61
2022/10/31 01:54:41;;;;;;;6.72;3.45;;;;;;;9.87;100.00;97751.44;5068911;28;20533;-61
2022/10/31 01:57:11;;;;;;;6.30;2.90;;;;;;;9.90;100.00;97755.56;5067985;28;20065;-61
2022/10/31 01:59:42;;;;;;;7.18;2.80;;;;;;;9.91;100.00;97754.47;5068005;28;20036;-61
2022/10/31 02:02:10;;;;;;;5.90;3.58;;;;;;;10.04;100.00;97755.28;5065883;28;20131;-61
2022/10/31 02:04:37;;;;;;;10.38;3.28;;;;;;;10.11;100.00;97747.88;5048995;28;20120;-61
2022/10/31 02:07:14;;;;;;;6.65;3.38;;;;;;;10.25;100.00;97754.63;5061493;28;20136;-61
2022/10/31 02:09:43;;;;;;;7.47;2.85;;;;;;;10.23;100.00;97753.22;5067849;28;20070;-61
2022/10/31 02:12:10;;;;;;;8.75;3.15;;;;;;;10.20;100.00;97748.28;5066645;28;20048;-61
2022/10/31 02:14:38;;;;;;;10.20;3.33;;;;;;;10.15;100.00;97751.72;5066643;28;20048;-61
2022/10/31 02:17:05;;;;;;;7.68;3.10;;;;;;;9.82;100.00;97748.63;5066719;28;20056;-61
2022/10/31 02:19:51;;;;;;;5.70;3.10;;;;;;;9.71;100.00;97747.59;5076837;28;20048;-61
2022/10/31 02:22:25;;;;;;;8.95;3.22;;;;;;;9.75;100.00;97753.34;5077987;28;20127;-61
2022/10/31 02:25:10;;;;;;;5.80;3.13;;;;;;;9.68;100.00;97750.75;5068584;28;20454;-61
2022/10/31 02:28:00;;;;;;;5.70;2.80;;;;;;;9.67;100.00;97754.53;5066877;28;20044;-61
2022/10/31 02:30:40;;;;;;;5.65;3.35;;;;;;;9.69;100.00;97749.69;5066949;28;20092;-61
2022/10/31 02:33:27;;;;;;;7.55;3.33;;;;;;;9.62;100.00;97749.03;5066264;28;20145;-61
2022/10/31 02:36:02;;;;;;;7.65;3.67;;;;;;;9.61;100.00;97745.47;5067973;28;20106;-61
2022/10/31 02:38:57;;;;;;;6.68;3.25;;;;;;;9.63;100.00;97747.94;5063052;28;20033;-61
2022/10/31 02:41:49;;;;;;;5.93;2.97;;;;;;;9.71;100.00;97744.06;5065857;28;20583;-61
2022/10/31 02:44:44;;;;;;;5.47;3.30;;;;;;;9.67;100.00;97741.00;5067656;28;20113;-61
2022/10/31 02:47:17;;;;;;;6.50;3.42;;;;;;;9.58;100.00;97743.25;5066209;28;20072;-61
2022/10/31 02:49:53;;;;;;;10.98;3.30;;;;;;;9.65;100.00;97734.19;5066089;28;20080;-61
2022/10/31 02:52:23;;;;;;;8.32;3.72;;;;;;;9.63;100.00;97734.44;5065794;28;20056;-61
2022/10/31 02:54:51;;;;;;;6.95;3.35;;;;;;;9.45;100.00;97735.38;5066026;28;20060;-61
2022/10/31 02:57:33;;;;;;;8.82;3.10;;;;;;;9.19;100.00;97738.31;5065999;28;20067;-61
2022/10/31 03:00:09;;;;;;;6.53;3.00;;;;;;;9.15;100.00;97741.72;5065380;28;20048;-61
2022/10/31 03:02:38;;;;;;;7.18;3.08;;;;;;;9.03;100.00;97737.13;5065311;28;20071;-61
2022/10/31 03:05:05;;;;;;;8.13;2.97;;;;;;;9.02;100.00;97748.16;5064976;28;20046;-61
2022/10/31 03:07:54;;;;;;;9.68;4.75;;;;;;;9.15;100.00;97739.00;5063742;28;20040;-60
2022/10/31 03:10:32;;;;;;;6.57;2.88;;;;;;;9.27;100.00;97744.41;5066289;28;20091;-61
2022/10/31 03:13:24;;;;;;;11.32;2.90;;;;;;;9.35;100.00;97744.06;5062739;28;20543;-61
2022/10/31 03:16:08;;;;;;;7.38;3.40;;;;;;;9.49;100.00;97747.38;5067479;28;20099;-61
2022/10/31 03:18:57;;;;;;;8.13;3.25;;;;;;;9.52;100.00;97748.78;5066019;28;20032;-61
2022/10/31 03:21:48;;;;;;;6.63;2.97;;;;;;;9.63;100.00;97754.16;5064994;28;20041;-61
2022/10/31 03:24:15;;;;;;;7.70;2.63;;;;;;;9.75;100.00;97742.53;5063934;28;20482;-61
2022/10/31 03:26:48;;;;;;;6.35;2.80;;;;;;;9.82;100.00;97747.81;5066653;28;20503;-61
2022/10/31 03:29:18;;;;;;;7.82;2.85;;;;;;;9.77;100.00;97745.81;5065250;28;20051;-61
2022/10/31 03:31:53;;;;;;;9.95;3.10;;;;;;;9.71;100.00;97747.59;5064500;28;20049;-61
2022/10/31 03:34:20;;;;;;;6.85;3.15;;;;;;;9.55;100.00;97753.72;5064778;28;20492;-61
2022/10/31 03:36:51;;;;;;;8.10;4.07;;;;;;;9.48;100.00;97743.81;5069966;28;20067;-61
2022/10/31 03:39:22;;;;;;;6.15;3.17;;;;;;;9.33;100.00;97741.59;5045441;28;20060;-61
2022/10/31 03:42:02;;;;;;;6.13;2.92;;;;;;;9.22;100.00;97751.34;5048991;28;20102;-61
2022/10/31 03:44:30;;;;;;;9.93;3.65;;;;;;;9.16;100.00;97746.88;5065228;28;20672;-61
2022/10/31 03:47:03;;;;;;;7.93;3.33;;;;;;;9.07;100.00;97746.41;5065009;28;20055;-61
2022/10/31 03:49:31;;;;;;;5.80;3.35;;;;;;;9.01;100.00;97743.81;5066138;28;20479;-61
2022/10/31 03:52:05;;;;;;;7.05;3.30;;;;;;;8.92;100.00;97744.16;5064193;28;20056;-61
2022/10/31 03:54:43;;;;;;;7.18;3.10;;;;;;;8.89;100.00;97744.63;5065318;28;20082;-61
2022/10/31 03:57:16;;;;;;;5.72;3.13;;;;;;;8.80;100.00;97741.44;5064937;28;20075;-61
2022/10/31 04:00:16;;;;;;;5.80;3.10;;;;;;;8.67;100.00;97741.63;5064669;28;20041;-61
2022/10/31 04:02:53;;;;;;;10.43;3.75;;;;;;;8.65;100.00;97733.75;5053648;28;20067;-61
2022/10/31 04:05:21;;;;;;;11.93;3.72;;;;;;;8.55;100.00;97738.91;5064099;28;20048;-61
2022/10/31 04:07:53;;;;;;;7.70;4.30;;;;;;;8.48;100.00;97730.03;5054930;28;20094;-61
2022/10/31 04:10:21;;;;;;;;;;;;;;;8.43;100.00;97728.00;5065290;28;20048;-61
2022/10/31 04:12:54;;;;;;;8.45;2.78;;;;;;;8.33;100.00;97729.38;5063892;28;19924;-60
2022/10/31 04:15:26;;;;;;;9.57;4.15;;;;;;;8.30;100.00;97742.53;5064238;28;20048;-61
2022/10/31 04:17:56;;;;;;;6.85;3.28;;;;;;;8.36;100.00;97738.09;5080904;28;20427;-61
2022/10/31 04:20:35;;;;;;;9.50;3.50;;;;;;;8.30;100.00;97734.44;5060598;28;20128;-61
2022/10/31 04:23:03;;;;;;;9.43;4.10;;;;;;;8.25;100.00;97737.00;5051196;28;20094;-61
2022/10/31 04:25:30;;;;;;;10.77;3.95;;;;;;;8.24;100.00;97727.22;5064449;28;20559;-61
2022/10/31 04:27:58;;;;;;;8.80;3.85;;;;;;;8.22;100.00;97722.06;5065371;28;20067;-60
2022/10/31 04:30:25;;;;;;;6.60;3.03;;;;;;;8.28;100.00;97725.72;5064269;28;20044;-61
2022/10/31 04:32:53;;;;;;;11.00;3.80;;;;;;;8.38;100.00;97731.41;5064020;28;20515;-61
2022/10/31 04:35:20;;;;;;;6.30;3.22;;;;;;;8.39;100.00;97722.25;5064449;28;20040;-61
2022/10/31 04:37:46;;;;;;;10.23;3.58;;;;;;;8.25;100.00;97723.50;5054106;28;20159;-60
2022/10/31 04:40:13;;;;;;;6.93;2.95;;;;;;;8.20;100.00;97724.19;5063992;28;20508;-61
2022/10/31 04:43:11;;;;;;;9.05;3.70;;;;;;;8.26;100.00;97720.56;5065202;28;20143;-61
2022/10/31 04:45:41;;;;;;;8.52;3.58;;;;;;;8.29;100.00;97722.00;5064137;28;20578;-61
2022/10/31 04:48:08;;;;;;;6.65;3.50;;;;;;;8.30;100.00;97715.53;5065103;28;20048;-61
2022/10/31 04:50:35;;;;;;;7.40;3.80;;;;;;;8.34;100.00;97714.03;5066083;28;20504;-61
2022/10/31 04:53:02;;;;;;;6.93;4.13;;;;;;;8.33;100.00;97709.66;5065562;28;20033;-61
2022/10/31 04:55:36;;;;;;;9.90;4.95;;;;;;;8.37;100.00;97705.47;5064238;28;20577;-60
2022/10/31 04:58:21;;;;;;;8.38;3.95;;;;;;;8.27;100.00;97707.91;5063827;28;20516;-60
2022/10/31 05:00:51;;;;;;;6.82;3.10;;;;;;;8.25;100.00;97705.44;5063693;28;20174;-60
2022/10/31 05:03:18;;;;;;;7.93;3.67;;;;;;;8.16;100.00;97715.72;5045460;28;20529;-60
2022/10/31 05:05:46;;;;;;;7.97;4.03;;;;;;;8.15;100.00;97705.97;5047347;28;20094;-60
2022/10/31 05:08:13;;;;;;;6.88;3.13;;;;;;;8.18;100.00;97708.22;5063718;28;20044;-60
2022/10/31 05:10:40;;;;;;;10.25;3.40;;;;;;;8.21;100.00;97706.94;5064535;28;20110;-60
2022/10/31 05:13:06;;;;;;;10.93;3.67;;;;;;;8.24;100.00;97700.25;5063372;28;20044;-60
2022/10/31 05:15:42;;;;;;;11.65;3.55;;;;;;;8.24;100.00;97701.09;5064962;28;20055;-59
2022/10/31 05:18:27;;;;;;;9.80;3.28;;;;;;;8.24;100.00;97705.66;5061363;28;20078;-59
2022/10/31 05:21:12;;;;;;;9.98;3.22;;;;;;;8.19;100.00;97701.75;5054138;28;20158;-60
2022/10/31 05:23:49;;;;;;;5.30;3.05;;;;;;;8.32;100.00;97700.78;5064998;28;20047;-60
2022/10/31 05:26:16;;;;;;;6.75;2.67;;;;;;;8.48;100.00;97698.50;5056911;28;20036;-60
2022/10/31 05:28:44;;;;;;;10.10;3.05;;;;;;;8.59;100.00;97694.19;5063972;28;20045;-60
2022/10/31 05:31:10;;;;;;;7.35;3.05;;;;;;;8.63;100.00;97695.38;5058387;28;20580;-59
2022/10/31 05:33:37;;;;;;;6.55;3.05;;;;;;;8.67;100.00;97696.53;5059635;28;20089;-60
2022/10/31 05:36:22;;;;;;;5.88;2.70;;;;;;;8.76;100.00;97694.34;5056038;28;20050;-60
2022/10/31 05:38:59;;;;;;;6.72;3.05;;;;;;;8.84;100.00;97685.91;5057630;28;20048;-60
2022/10/31 05:41:40;;;;;;;6.13;2.75;;;;;;;8.85;100.00;97687.53;5058404;28;20233;-60
2022/10/31 05:44:19;;;;;;;8.43;3.22;;;;;;;8.80;100.00;97678.50;5058637;28;20051;-60
2022/10/31 05:47:00;;;;;;;6.20;2.67;;;;;;;8.71;100.00;97689.63;5058274;28;20552;-60
2022/10/31 05:49:45;;;;;;;6.80;3.70;;;;;;;8.67;100.00;97679.53;5059884;28;20609;-59
2022/10/31 05:52:35;;;;;;;5.90;3.47;;;;;;;8.48;100.00;97681.47;5061065;28;20145;-58
2022/10/31 05:55:10;;;;;;;7.78;3.15;;;;;;;8.37;100.00;97683.88;5063830;28;20055;-60
2022/10/31 05:57:41;;;;;;;;;;;;;;;8.28;100.00;97683.41;5057554;28;20044;-60
2022/10/31 06:00:08;;;;;;;9.05;3.53;;;;;;;8.17;100.00;97681.47;5061736;28;20272;-59
2022/10/31 06:02:46;;;;;;;5.25;3.22;;;;;;;8.25;100.00;97681.16;5065550;28;20067;-60
2022/10/31 06:05:40;;;;;;;7.75;3.10;;;;;;;8.32;100.00;97675.66;5058375;28;20051;-60
2022/10/31 06:08:07;;;;;;;9.27;3.58;;;;;;;8.37;100.00;97677.69;5059588;28;20273;-60
2022/10/31 06:10:34;;;;;;;7.20;3.90;;;;;;;8.36;100.00;97682.25;5063969;28;20040;-60
2022/10/31 06:13:01;;;;;;;8.57;3.38;;;;;;;8.39;100.00;97678.25;5063209;28;20049;-60
2022/10/31 06:15:33;;;;;;;6.97;3.50;;;;;;;8.48;100.00;97670.66;5065042;28;20048;-59
2022/10/31 06:18:02;;;;;;;6.90;3.40;;;;;;;8.51;100.00;97673.72;5063867;28;20311;-60
2022/10/31 06:20:33;;;;;;;6.38;2.90;;;;;;;8.62;100.00;97671.31;5063955;28;20047;-60
2022/10/31 06:23:04;;;;;;;6.78;3.35;;;;;;;8.73;100.00;97675.09;5064469;28;20578;-60
2022/10/31 06:25:33;;;;;;;8.90;2.85;;;;;;;8.80;100.00;97665.81;5064758;28;20139;-60
2022/10/31 06:28:00;;;;;;;9.55;3.60;;;;;;;8.68;100.00;97671.22;5064557;28;20500;-60
2022/10/31 06:30:35;;;;;;;7.63;4.10;;;;;;;8.62;100.00;97672.13;5063438;28;20105;-60
2022/10/31 06:33:04;;;;;;;8.98;3.65;;;;;;;8.53;100.00;97668.97;5062852;28;20511;-60
2022/10/31 06:35:33;;;;;;;9.75;3.75;;;;;;;8.44;100.00;97675.72;5063631;28;20051;-59
2022/10/31 06:37:59;;;;;;;8.52;4.35;;;;;;;8.42;100.00;97667.00;5057845;28;20056;-60
2022/10/31 06:40:37;;;;;;;9.57;4.40;;;;;;;8.37;100.00;97675.78;5060227;28;20063;-58
2022/10/31 06:43:16;;;;;;;10.73;3.72;;;;;;;8.37;100.00;97667.69;5062219;28;20053;-60
2022/10/31 06:45:43;;;;;;;9.20;3.53;;;;;;;8.30;100.00;97667.00;5063539;28;20052;-60
2022/10/31 06:48:21;;;;;;;8.32;3.25;;;;;;;8.37;100.00;97673.09;5063622;28;20137;-60
2022/10/31 06:51:09;;;;;;;9.07;3.55;;;;;;;8.43;100.00;97668.66;5056706;28;20044;-60
2022/10/31 06:53:36;;;;;;;9.63;3.95;;;;;;;8.50;100.00;97666.69;5065367;28;20036;-60
2022/10/31 06:56:04;;;;;;;7.75;3.85;;;;;;;8.55;100.00;97671.44;5066037;28;20048;-60
2022/10/31 06:58:36;;;;;;;12.40;3.85;;;;;;;8.59;100.00;97669.91;5065323;28;20063;-60
2022/10/31 07:01:04;;;;;;;9.85;4.30;;;;;;;8.62;100.00;97669.44;5065309;28;20577;-60
2022/10/31 07:03:32;;;;;;;9.30;3.63;;;;;;;8.70;100.00;97679.88;5064872;28;20045;-59
2022/10/31 07:05:58;;;;;;;9.32;3.60;;;;;;;8.71;100.00;97678.81;5064693;28;20503;-60
2022/10/31 07:08:25;;;;;;;11.13;4.55;;;;;;;8.76;100.00;97682.72;5063542;28;20049;-60
2022/10/31 07:10:54;;;;;;;8.95;3.60;;;;;;;8.78;100.00;97681.44;5066466;28;20106;-59
2022/10/31 07:13:25;;;;;;;12.25;3.95;;;;;;;8.94;100.00;97681.81;5065301;28;20051;-60
2022/10/31 07:16:02;;;;;;;7.50;3.58;;;;;;;9.09;100.00;97684.88;5065212;28;20090;-59
2022/10/31 07:18:32;;;;;;;7.90;3.65;;;;;;;9.19;100.00;97692.41;5064956;28;20495;-60
2022/10/31 07:20:59;;;;;;;10.40;3.55;;;;;;;9.32;100.00;97693.22;5064717;28;20504;-59
2022/10/31 07:23:25;;;;;;;11.93;4.43;;;;;;;9.32;100.00;97693.22;5063917;28;20041;-58
2022/10/31 07:26:12;;;;;;;6.70;3.78;;;;;;;9.37;100.00;97687.91;5065839;28;20519;-59
2022/10/31 07:28:45;;;;;;;8.45;3.85;;;;;;;9.42;100.00;97692.59;5065122;28;20066;-59
2022/10/31 07:31:12;;;;;;;8.88;3.97;;;;;;;9.46;100.00;97689.19;5060921;28;20062;-60
2022/10/31 07:33:39;;;;;;;10.73;5.10;;;;;;;9.57;100.00;97690.25;5064350;28;20068;-58
2022/10/31 07:36:24;;;;;;;7.05;3.67;;;;;;;9.66;100.00;97696.09;5061742;28;20059;-59
2022/10/31 07:38:53;;;;;;;8.05;3.85;;;;;;;9.80;100.00;97701.25;5047963;28;20135;-57
2022/10/31 07:41:21;;;;;;;7.57;3.83;;;;;;;9.93;100.00;97698.28;5064616;28;20527;-59
2022/10/31 07:43:47;;;;;;;7.07;4.10;;;;;;;9.95;100.00;97701.56;5061453;28;20036;-60
2022/10/31 07:46:33;;;;;;;7.93;4.00;;;;;;;10.01;100.00;97699.78;5058247;28;20431;-60
2022/10/31 07:49:18;;;;;;;8.32;4.00;;;;;;;10.12;100.00;97703.50;5062315;28;20051;-59
2022/10/31 07:52:04;;;;;;;10.43;5.00;;;;;;;10.16;100.00;97699.25;5060056;28;20056;-60
2022/10/31 07:55:00;;;;;;;9.07;4.68;;;;;;;10.22;100.00;97700.19;5050444;28;20087;-59
2022/10/31 07:57:27;;;;;;;10.77;4.07;;;;;;;10.28;100.00;97704.63;5058449;28;20128;-59
2022/10/31 08:00:00;;;;;;;9.90;5.13;;;;;;;10.35;100.00;97701.75;5062619;28;20044;-60
2022/10/31 08:02:27;;;;;;;12.15;5.07;;;;;;;10.45;100.00;97699.28;5054758;28;20114;-60
2022/10/31 08:05:20;;;;;;;11.82;4.38;;;;;;;10.53;100.00;97698.06;5053609;28;20254;-60
2022/10/31 08:08:05;;;;;;;9.48;3.53;;;;;;;10.63;100.00;97702.84;5055373;28;20052;-60
2022/10/31 08:10:33;;;;;;;8.63;4.10;;;;;;;10.72;100.00;97692.44;5059994;28;20378;-60
2022/10/31 08:13:01;;;;;;;11.02;4.22;;;;;;;10.84;100.00;97692.34;5060514;28;20050;-60
2022/10/31 08:15:29;;;;;;;10.05;4.70;;;;;;;10.95;100.00;97691.47;5054585;28;20076;-58
2022/10/31 08:17:55;;;;;;;7.70;3.67;;;;;;;11.09;100.00;97696.56;5054801;28;20044;-60
2022/10/31 08:20:22;;;;;;;8.75;3.53;;;;;;;11.23;100.00;97687.00;5056382;28;20122;-60
2022/10/31 08:22:58;;;;;;;9.52;3.40;;;;;;;11.36;99.32;97674.16;5053837;28;20125;-61
2022/10/31 08:25:27;;;;;;;6.97;3.17;;;;;;;11.44;98.89;97688.13;5061695;28;20063;-60
2022/10/31 08:28:00;;;;;;;7.57;3.15;;;;;;;11.55;98.97;97682.84;5053138;28;20431;-60
2022/10/31 08:30:33;;;;;;;10.13;3.40;;;;;;;11.65;98.66;97668.59;5059090;28;20485;-61
2022/10/31 08:33:18;;;;;;;9.63;3.90;;;;;;;11.73;97.78;97670.03;5055040;28;20055;-60
2022/10/31 08:36:08;;;;;;;7.43;2.90;;;;;;;11.77;98.04;97666.56;5052069;28;20076;-60
2022/10/31 08:38:48;;;;;;;14.57;3.83;;;;;;;11.85;97.37;97668.03;5061059;28;20049;-60
2022/10/31 08:41:15;;;;;;;11.65;4.25;;;;;;;11.94;97.59;97662.97;5054926;28;20052;-60
2022/10/31 08:43:42;;;;;;;6.78;3.75;;;;;;;12.03;97.60;97658.75;5054182;28;20566;-61
2022/10/31 08:46:09;;;;;;;6.28;3.13;;;;;;;12.19;96.52;97656.19;5058141;28;20123;-60
2022/10/31 08:48:38;;;;;;;10.00;3.55;;;;;;;12.30;95.68;97652.53;5071415;28;20041;-60
2022/10/31 08:51:05;;;;;;;11.20;3.55;;;;;;;12.44;94.91;97652.09;5059946;28;20048;-60
2022/10/31 08:53:31;;;;;;;6.82;3.92;;;;;;;12.56;94.62;97655.47;5049110;28;20048;-60
2022/10/31 08:56:27;;;;;;;11.55;3.92;;;;;;;12.75;93.37;97652.38;5066729;28;20485;-60
2022/10/31 08:58:54;;;;;;;10.88;3.65;;;;;;;12.85;93.70;97649.75;5055679;28;20045;-59
2022/10/31 09:01:30;;;;;;;7.57;3.72;;;;;;;12.95;93.64;97653.63;5065951;28;20040;-60
2022/10/31 09:03:57;;;;;;;9.65;3.55;;;;;;;13.01;92.95;97647.94;5063458;28;20052;-60
2022/10/31 09:06:24;;;;;;;7.72;3.30;;;;;;;13.09;93.11;97641.19;5064403;28;20041;-60
2022/10/31 09:08:52;;;;;;;9.73;3.15;;;;;;;13.17;93.24;97639.09;5069021;28;20047;-61
2022/10/31 09:11:20;;;;;;;7.90;3.38;;;;;;;13.24;92.39;97642.41;5064495;28;20059;-60
2022/10/31 09:14:05;;;;;;;8.27;3.55;;;;;;;13.34;92.47;97631.56;5053626;28;20142;-61
2022/10/31 09:16:38;;;;;;;10.13;3.20;;;;;;;13.45;92.87;97639.78;5066319;28;20110;-61
2022/10/31 09:19:08;;;;;;;5.95;2.80;;;;;;;13.57;92.20;97640.44;5066971;28;20052;-60
2022/10/31 09:21:37;;;;;;;13.05;3.88;;;;;;;13.71;92.03;97634.50;5061020;28;20040;-61
2022/10/31 09:24:04;;;;;;;7.55;3.58;;;;;;;13.84;91.48;97630.44;5059244;28;20045;-61
2022/10/31 09:26:30;;;;;;;10.20;3.88;;;;;;;13.98;91.11;97631.59;5065302;28;20136;-61
2022/10/31 09:29:26;;;;;;;7.03;3.10;;;;;;;14.17;89.27;97634.66;5068005;28;20110;-60
2022/10/31 09:31:57;;;;;;;7.93;2.70;;;;;;;14.32;89.24;97641.19;5061882;28;20044;-60
2022/10/31 09:34:38;;;;;;;10.15;3.10;;;;;;;14.43;88.79;97639.31;5066420;28;20040;-61
2022/10/31 09:37:09;;;;;;;14.23;3.80;;;;;;;14.48;86.77;97631.13;5064146;28;20139;-61
2022/10/31 09:39:36;;;;;;;7.18;3.95;;;;;;;14.56;86.37;97632.53;5064754;28;20044;-60
2022/10/31 09:42:23;;;;;;;9.05;4.15;;;;;;;14.57;88.87;97634.16;5065034;28;20120;-60
2022/10/31 09:44:53;;;;;;;;;;;;;;;14.62;89.20;97633.31;5066251;28;20110;-58
2022/10/31 09:47:38;;;;;;;7.15;3.25;;;;;;;14.69;88.32;97640.16;5063690;28;19925;-60
2022/10/31 09:50:51;;;;;;;7.55;3.15;;;;;;;14.75;87.71;97640.97;5065812;28;20620;-60
2022/10/31 09:53:50;;;;;;;9.98;3.40;;;;;;;14.89;87.51;97646.69;5064102;28;20431;-60
2022/10/31 09:56:22;;;;;;;10.88;3.60;;;;;;;14.92;87.40;97643.44;5058114;28;20048;-61
2022/10/31 09:58:55;;;;;;;7.38;3.10;;;;;;;15.08;86.59;97651.63;5059430;28;20048;-59
2022/10/31 10:01:27;;;;;;;7.43;2.80;;;;;;;15.05;86.73;97643.97;5049134;28;20071;-60
2022/10/31 10:04:01;;;;;;;8.98;3.05;;;;;;;15.20;85.59;97643.13;5060027;28;20127;-60
2022/10/31 10:06:51;;;;;;;6.88;2.63;;;;;;;15.26;84.39;97644.75;5059481;28;20074;-60
2022/10/31 10:09:50;;;;;;;7.93;2.75;;;;;;;15.39;84.35;97632.44;5050914;28;20158;-60
2022/10/31 10:12:50;;;;;;;6.35;2.70;;;;;;;15.45;84.41;97633.25;5066951;28;20122;-60
2022/10/31 10:15:35;;;;;;;10.88;3.15;;;;;;;15.39;84.53;97629.72;5064307;28;20110;-60
2022/10/31 10:18:11;;;;;;;6.75;2.63;;;;;;;15.44;85.80;97628.91;5068321;28;20124;-60
2022/10/31 10:20:58;;;;;;;5.35;2.70;;;;;;;15.51;86.57;97625.88;5066900;28;20098;-60
2022/10/31 10:23:50;;;;;;;17.35;3.88;;;;;;;15.62;87.19;97624.72;5067473;28;20045;-60
2022/10/31 10:26:19;;;;;;;8.70;3.15;;;;;;;15.71;86.49;97616.78;5063607;28;20287;-60
2022/10/31 10:28:52;;;;;;;9.60;3.08;;;;;;;15.88;85.67;97621.09;5044145;28;20154;-64
2022/10/31 10:31:27;;;;;;;10.13;3.00;;;;;;;15.91;85.96;97620.50;5054928;28;20084;-59
2022/10/31 10:34:16;;;;;;;8.50;2.83;;;;;;;15.94;85.67;97615.34;5065945;28;20291;-61
2022/10/31 10:36:48;;;;;;;5.53;3.10;;;;;;;16.02;84.45;97621.28;5058301;28;20132;-61
2022/10/31 10:39:22;;;;;;;7.70;3.20;;;;;;;16.16;83.35;97614.13;5065536;28;20765;-61
2022/10/31 10:47:40;;;;;;;9.38;3.30;;;;;;;16.15;80.28;97617.13;5065276;28;20072;-62
2022/10/31 10:50:19;;;;;;;8.00;3.40;;;;;;;16.33;79.32;97610.19;5064890;28;20092;-61
2022/10/31 10:52:52;;;;;;;10.82;3.25;;;;;;;16.43;77.85;97607.38;5054273;28;20102;-61
2022/10/31 10:55:45;;;;;;;10.20;3.85;;;;;;;16.52;75.77;97602.94;5063393;28;20090;-61
2022/10/31 10:58:12;;;;;;;5.00;2.28;;;;;;;16.61;75.59;97596.84;5063961;28;20084;-61
2022/10/31 11:00:41;;;;;;;6.63;3.20;;;;;;;16.41;75.68;97593.19;5058234;28;20516;-63
2022/10/31 11:03:09;;;;;;;6.97;3.00;;;;;;;16.46;75.53;97582.22;5064895;28;20041;-61
2022/10/31 11:05:51;;;;;;;7.03;2.92;;;;;;;16.52;75.01;97581.06;5063394;28;20149;-61
2022/10/31 11:08:35;;;;;;;7.68;2.70;;;;;;;16.37;74.68;97575.75;5064847;28;20075;-61
2022/10/31 11:11:30;;;;;;;8.43;3.35;;;;;;;16.42;75.80;97559.31;5063919;28;20068;-61
2022/10/31 11:14:11;;;;;;;10.63;3.38;;;;;;;16.49;75.44;97564.44;5057306;28;20425;-61
2022/10/31 11:16:45;;;;;;;9.43;3.90;;;;;;;16.61;75.13;97561.31;5058358;28;20149;-61
2022/10/31 11:19:11;;;;;;;9.05;3.42;;;;;;;16.67;77.33;97556.63;5060376;28;20129;-61
2022/10/31 11:21:38;;;;;;;9.95;3.60;;;;;;;16.66;77.24;97552.28;5055180;28;20592;-61
2022/10/31 11:24:10;;;;;;;7.60;3.00;;;;;;;16.70;75.04;97548.66;5049633;28;20476;-61
2022/10/31 11:26:39;;;;;;;8.88;2.72;;;;;;;16.70;73.86;97554.13;5060205;28;20110;-61
2022/10/31 11:29:13;;;;;;;7.63;3.17;;;;;;;16.81;72.75;97554.84;5066311;28;20097;-61
2022/10/31 11:31:40;;;;;;;9.70;3.38;;;;;;;16.95;73.34;97554.97;5065912;28;20041;-61
2022/10/31 11:34:27;;;;;;;10.45;3.47;;;;;;;16.95;74.03;97546.78;5063420;28;20058;-61
2022/10/31 11:36:58;;;;;;;9.25;4.00;;;;;;;16.99;74.77;97550.56;5055689;28;20076;-61
2022/10/31 11:39:24;;;;;;;8.45;3.50;;;;;;;17.10;74.09;97543.09;5061684;28;20047;-61
2022/10/31 11:41:53;;;;;;;7.40;3.83;;;;;;;16.94;74.67;97541.59;5063689;28;20130;-61
2022/10/31 11:44:27;;;;;;;8.90;3.58;;;;;;;16.55;75.84;97535.16;5064357;28;20163;-64
2022/10/31 11:46:59;;;;;;;10.82;3.95;;;;;;;16.40;75.61;97533.38;5064025;28;20123;-61
2022/10/31 11:49:29;;;;;;;12.10;4.18;;;;;;;16.55;75.71;97535.94;5061663;28;20044;-62
2022/10/31 11:51:59;;;;;;;11.57;4.25;;;;;;;16.57;75.37;97528.28;5046701;28;20758;-63
2022/10/31 11:54:29;;;;;;;15.63;4.93;;;;;;;16.56;75.11;97536.78;5061833;28;20209;-62
2022/10/31 11:56:55;;;;;;;12.20;6.03;;;;;;;16.42;75.42;97537.44;5060806;28;20128;-60
2022/10/31 11:59:25;;;;;;;17.70;6.35;;;;;;;16.29;77.15;97527.97;5063607;28;20563;-60
2022/10/31 12:01:53;;;;;;;9.60;4.60;;;;;;;16.34;77.51;97524.38;5063616;28;20041;-60
2022/10/31 12:04:27;;;;;;;11.05;4.72;;;;;;;16.44;78.33;97523.50;5059548;28;20045;-62
2022/10/31 12:06:54;;;;;;;10.32;4.50;;;;;;;16.63;76.38;97509.94;5058076;28;20076;-60